WetterOnline ( http://www.wetteronline.de )

Wetter aktuell Werl

Aktuelles Wetter: Werl (84m)

6-stündlich | Neueste Meldungen
Ortszeit Temperatur Wetter
Mo, 19.02. 13:00 3.4° C bedeckt
Mo, 19.02. 7:00 -0.5° C bedeckt
Mo, 19.02. 1:00 0.6° C bedeckt
So, 18.02. 19:00 3.2° C bedeckt
So, 18.02. 13:00 6.0° C leicht bewölkt
So, 18.02. 7:00 -3.1° C wolkenlos
So, 18.02. 1:00 -2.5° C wolkenlos
Sa, 17.02. 19:00 1.4° C bedeckt
Ortszeit Temperatur Wetter
Mo, 19.02. 18:00 3.0° C bedeckt
Mo, 19.02. 17:50 3.0° C bedeckt
Mo, 19.02. 17:40 3.2° C bedeckt
Mo, 19.02. 17:30 3.5° C bedeckt
Mo, 19.02. 17:20 3.5° C bedeckt
Mo, 19.02. 17:10 3.6° C bedeckt
Mo, 19.02. 17:00 3.6° C bedeckt
Mo, 19.02. 16:30 4.0° C bedeckt
Mo, 19.02. 16:00 4.1° C bedeckt
Mo, 19.02. 15:30 4.2° C bedeckt
Mo, 19.02. 15:00 4.3° C bedeckt
Ortszeit Relative Feuchte Sichtweite
Mo, 19.02. 13:00 61% 10 km
Mo, 19.02. 7:00 79% 6 km
Mo, 19.02. 1:00 72% 10 km
So, 18.02. 19:00 66% 12 km
So, 18.02. 13:00 54% 12 km
So, 18.02. 7:00 87% 7 km
So, 18.02. 1:00 94% 2.8 km
Sa, 17.02. 19:00 73% 12 km
Ortszeit Relative Feuchte Sichtweite
Mo, 19.02. 18:00 68% 10 km
Mo, 19.02. 17:50 68% -
Mo, 19.02. 17:40 67% -
Mo, 19.02. 17:30 65% 10 km
Mo, 19.02. 17:20 65% -
Mo, 19.02. 17:10 66% -
Mo, 19.02. 17:00 65% 11 km
Mo, 19.02. 16:30 63% 11 km
Mo, 19.02. 16:00 60% 11 km
Mo, 19.02. 15:30 60% 12 km
Mo, 19.02. 15:00 58% 12 km
Ortszeit Niederschlagsmenge Niederschlagsart
Mo, 19.02. 13:00 0.0 l/m2 in 6 Std. -
Mo, 19.02. 7:00 0.0 l/m2 in 12 Std. -
Mo, 19.02. 1:00 0.0 l/m2 in 6 Std. -
So, 18.02. 19:00 0.0 l/m2 in 12 Std. -
So, 18.02. 13:00 0.0 l/m2 in 6 Std. -
So, 18.02. 7:00 0.0 l/m2 in 12 Std. -
So, 18.02. 1:00 0.0 l/m2 in 6 Std. -
Sa, 17.02. 19:00 0.0 l/m2 in 12 Std. -
Ortszeit Niederschlagsmenge Niederschlagsart
Mo, 19.02. 18:00 0.0 l/m2 in 1 Std. -
Mo, 19.02. 17:50 keine Meldung -
Mo, 19.02. 17:40 keine Meldung -
Mo, 19.02. 17:30 0.0 l/m2 in 1 Std. -
Mo, 19.02. 17:20 keine Meldung -
Mo, 19.02. 17:10 keine Meldung -
Mo, 19.02. 17:00 0.0 l/m2 in 1 Std. -
Mo, 19.02. 16:30 0.0 l/m2 in 1 Std. -
Mo, 19.02. 16:00 0.0 l/m2 in 1 Std. -
Mo, 19.02. 15:30 0.0 l/m2 in 1 Std. -
Mo, 19.02. 15:00 0.0 l/m2 in 1 Std. -
Ortszeit Stärke Spitze Richtung
km/h Bft. km/h Grad Sektor
Mo, 19.02. 13:00 4 1 14 240° SW
Mo, 19.02. 7:00 7 2 14 160° S
Mo, 19.02. 1:00 6 1 20 170° S
So, 18.02. 19:00 4 1 18 180° S
So, 18.02. 13:00 11 2 26 190° S
So, 18.02. 7:00 4 1 14 60° NO
So, 18.02. 1:00 0 0 7 - -
Sa, 17.02. 19:00 6 1 19 70° O
Ortszeit Stärke Spitze Richtung
km/h Bft. km/h Grad Sektor
Mo, 19.02. 18:00 6 1 9 80° O
Mo, 19.02. 17:50 6 1 - 80° O
Mo, 19.02. 17:40 4 1 - 80° O
Mo, 19.02. 17:30 7 2 11 70° O
Mo, 19.02. 17:20 7 2 - 70° O
Mo, 19.02. 17:10 7 2 - 70° O
Mo, 19.02. 17:00 7 2 11 60° NO
Mo, 19.02. 16:30 6 1 7 20° N
Mo, 19.02. 16:00 7 2 11 330° NW
Mo, 19.02. 15:30 7 2 11 310° NW
Mo, 19.02. 15:00 4 1 14 290° W
Ortszeit Untergrenze Bedeckung Gattung
total tief tief mittel hoch
Mo, 19.02. 13:00 3000 m 8/8 8/8 - - -
Mo, 19.02. 7:00 3300 m 8/8 8/8 - - -
Mo, 19.02. 1:00 5400 m 8/8 8/8 - - -
So, 18.02. 19:00 4200 m 8/8 8/8 - - -
So, 18.02. 13:00 7800 m 4/8 0/8 - - -
So, 18.02. 7:00 - 0/8 0/8 - - -
So, 18.02. 1:00 - 0/8 0/8 - - -
Sa, 17.02. 19:00 5100 m 8/8 8/8 - - -
Ortszeit Bedeckungsgrad in Achtel und Wolkenuntergrenze
Mo, 19.02. 18:00 8(2100m) 8(3300m)
Mo, 19.02. 17:50 8(2100m) 8(3300m)
Mo, 19.02. 17:40 8(2100m) 8(3300m)
Mo, 19.02. 17:30 8(2400m) 8(3300m)
Mo, 19.02. 17:20 8(2400m) 8(3300m)
Mo, 19.02. 17:10 8(2400m)
Mo, 19.02. 17:00 8(2400m) 8(3300m)
Mo, 19.02. 16:30 8(2400m) 8(3300m)
Mo, 19.02. 16:00 8(2400m) 8(3300m)
Mo, 19.02. 15:30 8(2400m) 8(3300m) 8(4500m)
Mo, 19.02. 15:00 8(2700m) 8(4500m)
Ortszeit Luftdruck NN (hPa) Tendenz (hPa in 3 Std.)
Mo, 19.02. 13:00 1020 - 1,0
Mo, 19.02. 7:00 1022 - 1,0
Mo, 19.02. 1:00 1025 - 0,6
So, 18.02. 19:00 1026 - 0,3
So, 18.02. 13:00 1027 0,0
So, 18.02. 7:00 1028 - 0,1
So, 18.02. 1:00 1027 + 1,1
Sa, 17.02. 19:00 1025 + 1,3
Ortszeit Luftdruck NN (hPa) Tendenz (hPa in 3 Std.)
Mo, 19.02. 18:00 1019 - 0,5
Mo, 19.02. 17:50 1019 keine Meldung
Mo, 19.02. 17:40 1019 keine Meldung
Mo, 19.02. 17:30 1019 - 0,7
Mo, 19.02. 17:20 1019 keine Meldung
Mo, 19.02. 17:10 1019 keine Meldung
Mo, 19.02. 17:00 1019 - 1,0
Mo, 19.02. 16:30 1019 - 1,3
Mo, 19.02. 16:00 1019 - 1,5
Mo, 19.02. 15:30 1019 - 1,6
Mo, 19.02. 15:00 1019 - 1,7
Ortszeit Schneehöhe (cm)
Mo, 19.02. 13:00 0
Mo, 19.02. 7:00 0
Mo, 19.02. 1:00 0
So, 18.02. 19:00 0
So, 18.02. 13:00 0
So, 18.02. 7:00 0
So, 18.02. 1:00 0
Sa, 17.02. 19:00 0
Ortszeit Schneehöhe (cm)
Mo, 19.02. 18:00 0
Mo, 19.02. 17:50 0
Mo, 19.02. 17:40 0
Mo, 19.02. 17:30 0
Mo, 19.02. 17:20 0
Mo, 19.02. 17:10 0
Mo, 19.02. 17:00 0
Mo, 19.02. 16:30 0
Mo, 19.02. 16:00 0
Mo, 19.02. 15:30 0
Mo, 19.02. 15:00 0
Link zu dieser Seite / Seite empfehlen

Das Wetter in ...